Bristol, Connecticut
Current Conditions -  °F | °C
As of 7:53 AM on Saturday 20 Dec 2014 (Local Time) from KMMK Reporting Station
Scattered Clouds Scattered Clouds  
Wind Chill: 20°   Ceiling: Unl
Heat Index: 27°   Visibility: 10mi
Dew Point: 19°   Wind: 6mph
Humidity: 72%   Direction: 350°N
Pressure: 30.28"   Gusts: NA
Location:  41.67°N, 72.95°W
Report Text: KMMK 201253Z AUTO 35005KT 10SM SCT033 M03/M07 A3028 RMK AO2 SLP254 T10281072 TSNO
Loading
Personal Weather Stations






























Interactive Weather Map New forecast layout! Learn more

10-Day Weather Forecast

Advertisements
Track Severe Weather on mobile